Time;durP1;ratioP1;P1;durP2;ratioP2;P2;SDS_P1;SDS_P2;PMS_P1;PMS_P2;Temp;Humidity;BMP_temperature;BMP_pressure;BME280_temperature;BME280_humidity;BME280_pressure;Samples;Min_cycle;Max_cycle;Signal;HPM_P1;HPM_P2
2024/02/14 00:00:00;;;;;;;14.88;6.40;;;3.40;99.90;;;;;;6064363;23;20038;-78
2024/02/14 00:02:51;;;;;;;10.73;5.55;;;3.30;99.90;;;;;;6057881;23;20035;-79
2024/02/14 00:05:39;;;;;;;10.45;5.75;;;3.30;99.90;;;;;;6033881;23;20038;-79
2024/02/14 00:08:27;;;;;;;13.18;6.07;;;3.20;99.90;;;;;;6033977;23;20159;-79
2024/02/14 00:11:14;;;;;;;16.90;6.80;;;3.20;99.90;;;;;;6058675;23;20075;-79
2024/02/14 00:14:02;;;;;;;14.35;6.28;;;3.10;99.90;;;;;;6056096;23;20032;-79
2024/02/14 00:16:50;;;;;;;15.35;5.97;;;3.10;99.90;;;;;;6056591;23;20031;-81
2024/02/14 00:19:38;;;;;;;9.90;6.10;;;3.10;99.90;;;;;;6056664;23;20042;-80
2024/02/14 00:22:25;;;;;;;9.38;6.03;;;3.20;99.90;;;;;;6056511;23;20030;-80
2024/02/14 00:25:15;;;;;;;21.35;6.60;;;3.20;99.90;;;;;;6053837;23;20102;-79
2024/02/14 00:28:06;;;;;;;12.10;6.07;;;3.30;99.90;;;;;;6055264;23;20097;-80
2024/02/14 00:30:54;;;;;;;13.75;5.57;;;3.30;99.90;;;;;;6037540;23;20026;-80
2024/02/14 00:33:42;;;;;;;10.57;5.25;;;3.40;99.90;;;;;;6062373;23;20031;-78
2024/02/14 00:36:30;;;;;;;13.70;5.72;;;3.50;99.90;;;;;;6062221;23;20418;-79
2024/02/14 00:39:17;;;;;;;9.88;5.15;;;3.60;99.90;;;;;;6029641;23;20120;-82
2024/02/14 00:42:05;;;;;;;8.68;5.03;;;3.70;99.90;;;;;;6045295;23;20130;-82
2024/02/14 00:44:52;;;;;;;9.30;4.68;;;3.70;99.90;;;;;;6064669;23;20042;-80
2024/02/14 00:47:40;;;;;;;10.70;5.00;;;3.80;99.90;;;;;;6054857;23;20030;-80
2024/02/14 00:50:28;;;;;;;10.57;4.78;;;3.90;99.90;;;;;;6034496;23;20034;-80
2024/02/14 00:53:17;;;;;;;8.75;4.97;;;4.00;99.90;;;;;;6054954;23;20362;-79
2024/02/14 00:56:06;;;;;;;11.13;4.75;;;4.10;99.90;;;;;;6057179;23;20112;-78
2024/02/14 00:58:53;;;;;;;14.63;5.28;;;4.20;99.90;;;;;;6065035;23;20031;-78
2024/02/14 01:01:42;;;;;;;14.95;5.43;;;4.20;99.90;;;;;;6072977;23;20033;-79
2024/02/14 01:04:30;;;;;;;13.13;4.95;;;4.10;99.90;;;;;;6055766;23;20031;-78
2024/02/14 01:07:17;;;;;;;10.77;5.47;;;4.10;99.90;;;;;;6054781;23;20030;-78
2024/02/14 01:10:05;;;;;;;13.48;5.45;;;4.00;99.90;;;;;;6057332;23;20078;-81
2024/02/14 01:12:54;;;;;;;11.43;5.70;;;3.90;99.90;;;;;;6063575;23;20027;-79
2024/02/14 01:15:42;;;;;;;15.65;5.78;;;3.90;99.90;;;;;;6062985;23;20366;-80
2024/02/14 01:18:30;;;;;;;15.70;5.95;;;3.80;99.90;;;;;;6046895;23;20253;-81
2024/02/14 01:21:19;;;;;;;11.40;5.20;;;3.80;1.00;;;;;;6062065;23;20451;-82
2024/02/14 01:24:08;;;;;;;12.75;5.95;;;3.70;1.00;;;;;;6043181;23;20053;-80
2024/02/14 01:26:56;;;;;;;11.70;5.80;;;3.80;1.00;;;;;;6058913;23;20030;-79
2024/02/14 01:29:44;;;;;;;9.80;5.30;;;3.80;1.00;;;;;;6053547;23;20101;-79
2024/02/14 01:32:31;;;;;;;14.65;6.25;;;3.80;2.60;;;;;;6056031;23;20023;-79
2024/02/14 01:35:19;;;;;;;10.75;6.10;;;3.70;69.50;;;;;;6055152;23;20034;-80
2024/02/14 01:38:06;;;;;;;11.15;5.63;;;3.70;99.90;;;;;;6033250;23;20019;-79
2024/02/14 01:40:54;;;;;;;12.40;6.45;;;3.70;99.90;;;;;;6054616;23;20035;-78
2024/02/14 01:43:41;;;;;;;11.13;5.93;;;3.60;99.90;;;;;;6052184;23;20035;-81
2024/02/14 01:46:29;;;;;;;18.27;6.47;;;3.60;99.90;;;;;;6055551;23;20082;-81
2024/02/14 01:49:19;;;;;;;15.07;6.00;;;3.60;99.90;;;;;;6054146;23;20033;-79
2024/02/14 01:52:07;;;;;;;14.00;6.07;;;3.60;99.90;;;;;;6054849;23;20148;-81
2024/02/14 01:54:55;;;;;;;12.85;6.28;;;3.50;99.90;;;;;;6059136;23;20033;-81
2024/02/14 01:57:50;;;;;;;16.20;6.88;;;3.50;1.00;;;;;;6062541;23;20461;-80
2024/02/14 02:00:38;;;;;;;12.32;6.60;;;3.60;1.00;;;;;;6062029;23;20043;-80
2024/02/14 02:03:26;;;;;;;12.40;6.43;;;3.50;1.00;;;;;;6025560;23;20038;-80
2024/02/14 02:06:15;;;;;;;9.98;6.20;;;3.50;1.00;;;;;;6062907;23;20111;-79
2024/02/14 02:09:03;;;;;;;14.05;6.80;;;3.50;1.00;;;;;;6063955;23;20113;-79
2024/02/14 02:11:56;;;;;;;13.57;6.07;;;3.50;1.00;;;;;;6036946;23;20033;-79
2024/02/14 02:14:45;;;;;;;15.43;7.07;;;3.40;1.00;;;;;;6057653;23;20026;-80
2024/02/14 02:17:36;;;;;;;11.85;7.40;;;3.40;14.10;;;;;;6056536;23;20399;-80
2024/02/14 02:20:23;;;;;;;12.82;7.28;;;3.40;99.90;;;;;;6056130;23;20033;-81
2024/02/14 02:23:14;;;;;;;12.48;7.05;;;3.30;99.90;;;;;;6055974;23;20030;-80
2024/02/14 02:26:02;;;;;;;13.63;7.43;;;3.40;1.00;;;;;;6058670;23;20042;-79
2024/02/14 02:28:49;;;;;;;13.43;7.05;;;3.30;1.00;;;;;;6061107;23;20049;-79
2024/02/14 02:31:38;;;;;;;13.88;5.82;;;3.40;1.00;;;;;;6035534;23;20446;-78
2024/02/14 02:34:27;;;;;;;12.95;6.10;;;3.40;1.00;;;;;;6055502;23;20101;-78
2024/02/14 02:37:16;;;;;;;10.00;6.10;;;3.50;99.90;;;;;;6054805;23;20031;-80
2024/02/14 02:40:07;;;;;;;14.88;5.85;;;3.60;99.90;;;;;;6056641;23;20060;-79
2024/02/14 02:42:55;;;;;;;15.00;5.72;;;3.60;99.90;;;;;;6053211;23;20027;-79
2024/02/14 02:45:43;;;;;;;15.07;5.55;;;3.60;99.90;;;;;;6056981;23;20030;-80
2024/02/14 02:48:31;;;;;;;12.32;5.80;;;3.60;99.90;;;;;;6065213;23;20035;-79
2024/02/14 02:51:19;;;;;;;12.00;5.18;;;3.50;99.90;;;;;;6066956;23;20082;-79
2024/02/14 02:54:08;;;;;;;11.50;5.80;;;3.50;85.40;;;;;;6035652;23;20034;-80
2024/02/14 02:56:56;;;;;;;12.43;5.30;;;3.50;90.00;;;;;;6053717;23;20045;-81
2024/02/14 02:59:44;;;;;;;9.15;5.13;;;3.40;94.30;;;;;;6054814;23;20374;-79
2024/02/14 03:02:34;;;;;;;8.68;5.45;;;3.50;99.90;;;;;;6057737;23;20037;-79
2024/02/14 03:05:23;;;;;;;12.63;5.63;;;3.50;99.90;;;;;;6058026;23;20031;-80
2024/02/14 03:08:15;;;;;;;10.48;5.32;;;3.60;99.90;;;;;;6034269;23;20031;-80
2024/02/14 03:11:07;;;;;;;10.52;5.20;;;3.60;99.90;;;;;;6036612;23;20027;-79
2024/02/14 03:13:54;;;;;;;12.35;4.63;;;3.60;99.90;;;;;;6051981;23;20042;-79
2024/02/14 03:16:42;;;;;;;9.30;4.60;;;3.60;99.90;;;;;;6035141;23;20669;-80
2024/02/14 03:19:30;;;;;;;10.02;4.30;;;3.80;99.90;;;;;;6014569;23;20033;-79
2024/02/14 03:22:18;;;;;;;10.65;3.60;;;4.00;14.80;;;;;;6037382;23;20459;-79
2024/02/14 03:25:07;;;;;;;7.95;3.58;;;4.10;1.00;;;;;;6068141;23;20079;-79
2024/02/14 03:27:56;;;;;;;8.85;3.70;;;4.20;1.00;;;;;;6081892;23;20083;-81
2024/02/14 03:30:45;;;;;;;8.38;3.63;;;4.10;99.90;;;;;;6088957;23;20046;-81
2024/02/14 03:33:32;;;;;;;9.82;3.63;;;4.20;99.90;;;;;;6068775;23;20031;-79
2024/02/14 03:36:20;;;;;;;10.65;3.88;;;4.20;99.90;;;;;;6076220;23;20014;-82
2024/02/14 03:39:11;;;;;;;10.85;4.40;;;4.20;99.90;;;;;;6068344;23;20019;-79
2024/02/14 03:42:02;;;;;;;6.55;4.00;;;4.20;99.90;;;;;;6075537;23;20059;-81
2024/02/14 03:44:50;;;;;;;14.40;4.72;;;4.10;21.40;;;;;;6060099;23;20038;-80
2024/02/14 03:47:41;;;;;;;5.97;3.83;;;4.10;1.00;;;;;;6057097;23;20353;-79
2024/02/14 03:50:29;;;;;;;10.48;3.30;;;4.00;1.00;;;;;;6056628;23;20371;-80
2024/02/14 03:53:17;;;;;;;10.05;4.43;;;4.00;1.00;;;;;;6034811;23;20034;-82
2024/02/14 03:56:07;;;;;;;10.50;4.40;;;4.00;1.00;;;;;;6056337;23;20497;-80
2024/02/14 03:58:54;;;;;;;7.88;4.05;;;3.90;1.00;;;;;;6056031;23;20058;-80
2024/02/14 04:01:45;;;;;;;7.28;4.40;;;3.90;1.00;;;;;;6057249;23;20130;-80
2024/02/14 04:04:33;;;;;;;10.30;4.28;;;3.80;1.00;;;;;;6057048;23;20045;-80
2024/02/14 04:07:22;;;;;;;6.13;4.20;;;3.80;1.00;;;;;;6037016;23;20109;-79
2024/02/14 04:10:10;;;;;;;8.30;3.67;;;3.80;1.00;;;;;;6058721;23;20027;-80
2024/02/14 04:12:58;;;;;;;8.75;3.47;;;3.70;1.00;;;;;;6058936;23;20035;-80
2024/02/14 04:15:46;;;;;;;7.72;4.13;;;3.60;1.00;;;;;;6038356;23;20022;-80
2024/02/14 04:18:33;;;;;;;9.93;4.10;;;3.60;1.00;;;;;;6061949;23;20035;-77
2024/02/14 04:21:21;;;;;;;10.65;3.80;;;3.70;1.00;;;;;;6085817;23;20026;-81
2024/02/14 04:24:09;;;;;;;6.30;3.78;;;3.60;1.00;;;;;;6086243;23;20239;-80
2024/02/14 04:26:57;;;;;;;6.40;3.92;;;3.70;1.00;;;;;;6063911;23;20101;-78
2024/02/14 04:29:48;;;;;;;10.70;4.28;;;3.50;1.00;;;;;;6054991;23;20706;-80
2024/02/14 04:32:35;;;;;;;9.15;4.25;;;3.50;1.00;;;;;;6054887;23;20599;-80
2024/02/14 04:35:23;;;;;;;7.93;3.70;;;3.50;1.00;;;;;;6053813;23;20038;-79
2024/02/14 04:38:11;;;;;;;7.60;3.63;;;3.60;1.00;;;;;;6054863;23;20058;-79
2024/02/14 04:40:59;;;;;;;9.15;3.78;;;3.70;1.00;;;;;;6055874;23;20026;-78
2024/02/14 04:43:47;;;;;;;12.68;4.00;;;3.70;1.00;;;;;;6033612;23;20034;-79
2024/02/14 04:46:35;;;;;;;11.90;4.18;;;3.70;1.00;;;;;;6054206;23;20042;-79
2024/02/14 04:49:23;;;;;;;9.57;3.65;;;3.70;1.00;;;;;;6055022;23;20115;-79
2024/02/14 04:52:11;;;;;;;7.25;3.80;;;3.70;1.00;;;;;;6056356;23;20064;-78
2024/02/14 04:54:59;;;;;;;7.47;3.25;;;3.70;1.00;;;;;;6055947;23;20026;-79
2024/02/14 04:57:48;;;;;;;7.40;3.03;;;3.80;1.00;;;;;;6055580;23;20713;-79
2024/02/14 05:00:35;;;;;;;9.45;3.38;;;3.90;1.00;;;;;;6041877;23;20199;-80
2024/02/14 05:03:25;;;;;;;3.92;2.50;;;3.90;99.90;;;;;;6063657;23;20491;-79
2024/02/14 05:06:13;;;;;;;8.38;3.08;;;4.00;99.90;;;;;;6058652;23;20057;-78
2024/02/14 05:09:01;;;;;;;6.78;3.40;;;4.00;99.90;;;;;;6056480;23;20042;-80
2024/02/14 05:11:49;;;;;;;6.50;3.30;;;4.10;99.90;;;;;;6060088;23;20029;-79
2024/02/14 05:14:38;;;;;;;10.65;2.85;;;4.20;99.90;;;;;;6060455;23;20048;-80
2024/02/14 05:17:25;;;;;;;9.60;3.22;;;4.30;99.90;;;;;;6054347;23;20027;-80
2024/02/14 05:20:13;;;;;;;6.35;2.80;;;4.40;99.90;;;;;;6054797;23;20031;-80
2024/02/14 05:23:01;;;;;;;6.80;2.75;;;4.50;99.90;;;;;;6054019;23;20039;-80
2024/02/14 05:25:50;;;;;;;6.85;3.08;;;4.60;99.90;;;;;;6055257;23;20027;-79
2024/02/14 05:28:37;;;;;;;5.28;2.55;;;4.60;99.90;;;;;;6056185;23;20051;-75
2024/02/14 05:31:41;;;;;;;8.38;3.10;;;4.60;99.90;;;;;;6053646;23;20027;-76
2024/02/14 05:34:29;;;;;;;7.65;3.08;;;4.60;99.90;;;;;;6033983;23;20027;-75
2024/02/14 05:37:18;;;;;;;6.10;2.90;;;4.60;99.90;;;;;;6053863;23;20063;-74
2024/02/14 05:40:07;;;;;;;5.10;2.75;;;4.70;99.90;;;;;;6035099;23;20780;-75
2024/02/14 05:42:55;;;;;;;8.25;2.72;;;4.70;99.90;;;;;;6023285;23;20041;-77
2024/02/14 05:45:44;;;;;;;6.55;2.75;;;4.70;99.90;;;;;;6066285;23;20038;-76
2024/02/14 05:48:32;;;;;;;7.80;2.88;;;4.60;99.90;;;;;;6052543;23;20102;-76
2024/02/14 05:51:20;;;;;;;4.97;2.33;;;4.70;99.90;;;;;;6040608;23;20557;-76
2024/02/14 05:54:07;;;;;;;9.10;2.78;;;4.60;99.10;;;;;;6064433;23;20022;-74
2024/02/14 05:56:57;;;;;;;6.03;2.50;;;4.60;89.70;;;;;;6040113;23;20031;-77
2024/02/14 05:59:44;;;;;;;15.05;3.67;;;4.60;74.90;;;;;;6034048;23;20053;-76
2024/02/14 06:02:34;;;;;;;7.22;2.75;;;4.60;62.80;;;;;;6057497;23;20035;-81
2024/02/14 06:05:22;;;;;;;6.40;2.72;;;4.70;49.50;;;;;;6038327;23;20027;-81
2024/02/14 06:08:11;;;;;;;8.40;2.53;;;4.70;27.20;;;;;;6038676;23;20026;-81
2024/02/14 06:10:59;;;;;;;6.30;2.47;;;4.70;13.80;;;;;;6058683;23;20029;-78
2024/02/14 06:13:49;;;;;;;7.68;2.75;;;4.70;2.50;;;;;;6060964;23;20535;-81
2024/02/14 06:16:37;;;;;;;7.55;2.45;;;4.80;1.00;;;;;;6060276;23;20037;-82
2024/02/14 06:19:26;;;;;;;6.93;2.60;;;5.00;1.00;;;;;;6055593;23;20038;-78
2024/02/14 06:22:13;;;;;;;5.78;2.60;;;5.00;1.00;;;;;;6057756;23;20027;-80
2024/02/14 06:25:01;;;;;;;7.95;2.72;;;5.10;1.00;;;;;;6063701;23;20419;-81
2024/02/14 06:27:48;;;;;;;5.38;2.55;;;5.00;1.00;;;;;;6068533;23;20027;-80
2024/02/14 06:30:36;;;;;;;9.75;3.65;;;5.00;1.00;;;;;;6049965;23;20351;-77
2024/02/14 06:33:23;;;;;;;9.20;2.78;;;5.00;1.00;;;;;;6040692;23;20027;-79
2024/02/14 06:36:11;;;;;;;6.65;2.85;;;5.10;1.00;;;;;;6045191;23;20038;-80
2024/02/14 06:38:59;;;;;;;5.80;3.28;;;5.10;1.00;;;;;;6040799;23;20120;-81
2024/02/14 06:41:47;;;;;;;5.78;2.67;;;5.10;1.00;;;;;;6054889;23;20085;-79
2024/02/14 06:44:35;;;;;;;13.07;3.42;;;5.00;1.00;;;;;;6055949;23;20039;-79
2024/02/14 06:47:23;;;;;;;5.80;3.45;;;4.90;1.00;;;;;;6055847;23;20027;-80
2024/02/14 06:50:11;;;;;;;6.85;2.72;;;4.90;1.00;;;;;;6055496;23;20105;-80
2024/02/14 06:52:59;;;;;;;7.95;3.05;;;4.90;1.00;;;;;;6053014;23;20596;-80
2024/02/14 06:55:47;;;;;;;9.93;3.00;;;4.90;1.00;;;;;;6037029;23;20376;-80
2024/02/14 06:58:34;;;;;;;6.95;3.15;;;4.90;1.00;;;;;;6056429;23;20046;-79
2024/02/14 07:01:22;;;;;;;5.63;2.95;;;4.80;1.00;;;;;;6057405;23;20026;-80
2024/02/14 07:04:10;;;;;;;4.75;2.60;;;4.80;1.00;;;;;;6054834;23;20157;-78
2024/02/14 07:06:58;;;;;;;9.43;2.70;;;4.80;1.00;;;;;;6067230;23;20742;-81
2024/02/14 07:09:47;;;;;;;5.53;2.95;;;4.90;1.00;;;;;;6054742;23;20030;-79
2024/02/14 07:12:36;;;;;;;7.30;2.35;;;5.00;1.00;;;;;;6060208;23;20110;-79
2024/02/14 07:15:28;;;;;;;6.00;2.60;;;5.10;1.00;;;;;;6067866;23;20027;-81
2024/02/14 07:18:16;;;;;;;4.97;2.65;;;5.10;1.00;;;;;;6068589;23;20030;-78
2024/02/14 07:21:05;;;;;;;4.53;2.85;;;5.10;1.00;;;;;;6038502;23;20109;-79
2024/02/14 07:23:54;;;;;;;8.38;2.50;;;5.20;1.00;;;;;;6059339;23;20684;-79
2024/02/14 07:26:44;;;;;;;8.02;2.55;;;5.40;1.00;;;;;;6060334;23;20116;-78
2024/02/14 07:29:31;;;;;;;12.35;3.20;;;5.50;1.00;;;;;;6057242;23;20110;-76
2024/02/14 07:32:21;;;;;;;8.75;2.95;;;5.50;1.00;;;;;;6054016;23;20034;-78
2024/02/14 07:35:09;;;;;;;5.32;2.50;;;5.60;1.00;;;;;;6045471;23;20087;-77
2024/02/14 07:37:57;;;;;;;6.72;2.92;;;5.70;1.00;;;;;;6059831;23;20027;-78
2024/02/14 07:40:45;;;;;;;7.10;2.35;;;5.80;1.00;;;;;;6066826;23;20026;-78
2024/02/14 07:43:33;;;;;;;5.50;2.58;;;5.90;1.00;;;;;;6070779;23;20026;-78
2024/02/14 07:46:22;;;;;;;9.35;2.50;;;6.00;1.00;;;;;;6064544;23;20029;-76
2024/02/14 07:49:10;;;;;;;6.07;2.58;;;6.10;1.00;;;;;;6062176;23;20031;-79
2024/02/14 07:51:57;;;;;;;5.55;2.33;;;6.20;1.00;;;;;;6061359;23;20039;-78
2024/02/14 07:54:45;;;;;;;3.58;2.35;;;6.30;1.00;;;;;;6064147;23;20037;-77
2024/02/14 07:57:32;;;;;;;3.60;2.22;;;6.30;1.00;;;;;;6063996;23;20062;-78
2024/02/14 08:00:22;;;;;;;3.28;2.05;;;6.40;1.00;;;;;;6088357;23;20074;-79
2024/02/14 08:03:11;;;;;;;6.50;2.50;;;6.50;1.00;;;;;;6076277;23;20015;-79
2024/02/14 08:06:00;;;;;;;7.25;2.50;;;6.50;1.00;;;;;;6054758;23;20034;-79
2024/02/14 08:08:57;;;;;;;5.70;2.20;;;6.60;1.00;;;;;;6043487;23;20030;-78
2024/02/14 08:11:44;;;;;;;5.75;2.28;;;6.60;1.00;;;;;;6061755;23;20026;-80
2024/02/14 08:14:32;;;;;;;3.97;1.90;;;6.70;1.00;;;;;;6055151;23;20091;-81
2024/02/14 08:17:23;;;;;;;5.78;2.38;;;6.70;1.00;;;;;;6052996;23;20026;-79
2024/02/14 08:20:33;;;;;;;8.63;2.30;;;6.80;1.00;;;;;;6057892;23;20106;-79
2024/02/14 08:23:22;;;;;;;10.25;2.70;;;7.00;1.00;;;;;;6053550;23;20330;-76
2024/02/14 08:26:10;;;;;;;8.68;2.55;;;7.10;1.00;;;;;;6052984;23;20045;-77
2024/02/14 08:29:00;;;;;;;5.47;2.22;;;7.20;1.00;;;;;;6032361;23;20542;-77
2024/02/14 08:31:48;;;;;;;6.72;2.35;;;7.40;1.00;;;;;;6052610;23;20150;-79
2024/02/14 08:34:35;;;;;;;6.25;2.35;;;7.50;99.90;;;;;;6055327;23;20513;-78
2024/02/14 08:37:24;;;;;;;4.82;2.03;;;7.60;99.90;;;;;;6054470;23;20078;-77
2024/02/14 08:40:12;;;;;;;5.32;2.08;;;7.70;99.90;;;;;;6054531;23;20037;-79
2024/02/14 08:43:00;;;;;;;7.57;2.30;;;7.80;99.90;;;;;;6056801;23;20471;-76
2024/02/14 08:45:48;;;;;;;4.75;1.92;;;7.80;99.90;;;;;;6050679;23;20105;-76
2024/02/14 08:48:35;;;;;;;4.53;2.00;;;7.70;99.90;;;;;;6051651;23;20624;-77
2024/02/14 08:51:24;;;;;;;3.63;2.00;;;7.70;99.90;;;;;;6056493;23;20023;-75
2024/02/14 08:54:12;;;;;;;7.63;2.20;;;7.70;99.90;;;;;;6042172;23;20038;-76
2024/02/14 08:56:59;;;;;;;4.30;2.00;;;7.80;99.90;;;;;;6036845;23;20046;-78
2024/02/14 08:59:48;;;;;;;3.13;1.83;;;7.80;99.90;;;;;;6056415;23;20529;-79
2024/02/14 09:02:36;;;;;;;8.32;2.60;;;7.80;99.90;;;;;;6055870;23;20030;-78
2024/02/14 09:05:24;;;;;;;4.78;2.28;;;7.80;99.90;;;;;;6051882;23;20034;-80
2024/02/14 09:08:12;;;;;;;4.55;2.08;;;7.90;99.90;;;;;;6057817;23;20027;-80
2024/02/14 09:11:00;;;;;;;6.03;2.15;;;7.90;99.90;;;;;;6059461;23;20033;-80
2024/02/14 09:13:49;;;;;;;9.98;2.70;;;8.10;99.90;;;;;;6058924;23;20434;-77
2024/02/14 09:16:38;;;;;;;3.63;1.60;;;8.20;99.90;;;;;;6059529;23;20027;-78
2024/02/14 09:19:27;;;;;;;4.22;2.33;;;8.30;99.90;;;;;;6043116;23;20027;-80
2024/02/14 09:22:21;;;;;;;4.90;2.00;;;8.40;99.90;;;;;;6060210;23;20114;-79
2024/02/14 09:25:11;;;;;;;5.97;2.30;;;8.60;99.90;;;;;;6057702;23;20037;-79
2024/02/14 09:27:59;;;;;;;8.45;2.15;;;8.60;99.90;;;;;;6056593;23;20031;-79
2024/02/14 09:30:46;;;;;;;4.07;1.77;;;8.70;99.90;;;;;;6063529;23;20094;-79
2024/02/14 09:33:36;;;;;;;4.30;1.88;;;8.60;99.90;;;;;;6058267;23;20129;-78
2024/02/14 09:36:25;;;;;;;6.60;1.90;;;8.80;99.90;;;;;;6062799;23;20015;-79
2024/02/14 09:39:17;;;;;;;7.50;1.88;;;9.00;99.90;;;;;;6074975;23;20026;-78
2024/02/14 09:42:14;;;;;;;5.32;2.03;;;9.30;99.90;;;;;;6054339;23;20035;-78
2024/02/14 09:45:02;;;;;;;2.67;1.77;;;9.30;99.90;;;;;;6067187;23;20039;-78
2024/02/14 09:47:51;;;;;;;5.68;1.90;;;9.60;99.90;;;;;;6063866;23;20642;-79
2024/02/14 09:50:40;;;;;;;3.20;1.58;;;9.70;99.90;;;;;;6041649;23;20027;-78
2024/02/14 09:53:29;;;;;;;5.85;1.92;;;9.70;99.90;;;;;;6054859;23;20087;-77
2024/02/14 09:56:18;;;;;;;4.85;1.50;;;9.80;99.90;;;;;;6036080;23;20054;-78
2024/02/14 09:59:06;;;;;;;2.33;1.58;;;10.00;99.90;;;;;;6055538;23;20664;-77
2024/02/14 10:01:57;;;;;;;5.35;1.60;;;10.10;99.90;;;;;;6057576;23;20042;-79
2024/02/14 10:04:44;;;;;;;2.95;1.40;;;10.20;99.90;;;;;;6058065;23;20030;-76
2024/02/14 10:07:43;;;;;;;5.38;1.98;;;10.20;99.90;;;;;;6055203;23;20071;-77
2024/02/14 10:10:38;;;;;;;7.05;1.60;;;10.00;99.90;;;;;;6057556;23;20042;-80
2024/02/14 10:13:29;;;;;;;1.58;1.20;;;10.10;99.90;;;;;;6059306;23;20026;-79
2024/02/14 10:16:20;;;;;;;5.25;1.63;;;10.10;99.90;;;;;;6058167;23;20093;-79
2024/02/14 10:19:18;;;;;;;3.97;1.60;;;10.70;99.90;;;;;;6058931;23;20023;-78
2024/02/14 10:22:07;;;;;;;6.25;1.30;;;11.20;99.90;;;;;;6066806;23;20755;-77
2024/02/14 10:24:55;;;;;;;6.03;1.80;;;11.70;99.90;;;;;;6033275;23;20153;-80
2024/02/14 10:27:46;;;;;;;4.82;2.05;;;12.00;99.90;;;;;;6056391;23;20047;-79
2024/02/14 10:30:40;;;;;;;3.80;1.52;;;12.40;99.90;;;;;;6061919;23;20037;-77
2024/02/14 10:33:30;;;;;;;5.07;1.73;;;13.10;99.90;;;;;;6068774;23;20023;-79
2024/02/14 10:36:20;;;;;;;4.07;1.55;;;13.50;99.90;;;;;;6066212;23;20027;-77
2024/02/14 10:39:09;;;;;;;4.53;1.80;;;12.80;99.90;;;;;;6053083;23;20033;-78
2024/02/14 10:41:57;;;;;;;4.20;1.40;;;12.40;99.90;;;;;;6055815;23;20490;-79
2024/02/14 10:44:49;;;;;;;4.15;1.95;;;12.20;99.90;;;;;;6069045;23;20026;-77
2024/02/14 10:47:42;;;;;;;5.00;1.67;;;12.10;99.90;;;;;;6057915;23;20106;-77
2024/02/14 10:50:35;;;;;;;5.95;1.75;;;12.50;99.90;;;;;;6059712;23;20034;-80
2024/02/14 10:53:25;;;;;;;2.55;1.38;;;12.70;99.90;;;;;;6036293;23;20023;-79
2024/02/14 10:56:21;;;;;;;7.28;1.70;;;12.50;99.90;;;;;;6057762;23;20027;-82
2024/02/14 10:59:13;;;;;;;3.00;1.80;;;12.20;99.90;;;;;;6039995;23;20023;-77
2024/02/14 11:02:01;;;;;;;2.92;1.42;;;12.20;99.90;;;;;;6061332;23;20058;-78
2024/02/14 11:04:53;;;;;;;2.17;1.42;;;12.60;99.90;;;;;;6042914;23;20473;-77
2024/02/14 11:07:52;;;;;;;1.77;1.20;;;12.80;99.90;;;;;;6061759;23;20030;-79
2024/02/14 11:10:43;;;;;;;4.82;2.00;;;12.30;99.90;;;;;;6066100;23;20091;-77
2024/02/14 11:13:32;;;;;;;3.20;1.70;;;12.10;99.90;;;;;;6058506;23;20518;-77
2024/02/14 11:16:29;;;;;;;2.15;1.38;;;12.00;99.90;;;;;;6066251;23;20027;-75
2024/02/14 11:19:19;;;;;;;2.38;1.30;;;12.50;99.90;;;;;;6079717;23;20050;-76
2024/02/14 11:22:14;;;;;;;2.28;1.50;;;12.70;99.90;;;;;;6076436;23;20042;-77
2024/02/14 11:25:24;;;;;;;1.83;1.42;;;12.60;99.90;;;;;;6045740;23;20037;-80
2024/02/14 11:28:25;;;;;;;2.28;1.30;;;12.10;99.90;;;;;;6057540;23;20035;-80
2024/02/14 11:31:17;;;;;;;5.47;1.60;;;12.20;99.90;;;;;;6059582;23;20027;-81
2024/02/14 11:34:05;;;;;;;3.03;1.13;;;12.60;99.90;;;;;;6062711;23;20822;-79
2024/02/14 11:36:53;;;;;;;1.65;1.00;;;12.50;99.90;;;;;;6063761;23;20027;-77
2024/02/14 11:39:45;;;;;;;2.60;1.67;;;12.40;99.90;;;;;;6069149;23;20031;-79
2024/02/14 11:42:35;;;;;;;1.30;1.00;;;12.30;99.90;;;;;;6071028;23;20588;-78
2024/02/14 11:45:22;;;;;;;1.30;1.17;;;11.90;99.90;;;;;;6053192;23;20038;-76
2024/02/14 11:48:11;;;;;;;3.72;1.10;;;11.90;99.90;;;;;;6073141;23;20098;-77
2024/02/14 11:50:59;;;;;;;1.13;1.02;;;11.90;99.90;;;;;;6031697;23;20034;-79
2024/02/14 11:53:47;;;;;;;3.55;0.98;;;11.80;99.90;;;;;;6061236;23;20027;-80
2024/02/14 11:56:38;;;;;;;1.55;0.70;;;11.90;99.90;;;;;;6061311;23;20030;-77
2024/02/14 11:59:26;;;;;;;2.27;0.80;;;13.00;99.90;;;;;;6041295;23;20066;-77
2024/02/14 12:02:16;;;;;;;0.80;0.77;;;13.70;99.90;;;;;;6041904;23;20251;-78
2024/02/14 12:05:05;;;;;;;2.15;0.80;;;14.80;99.90;;;;;;6063900;23;20057;-79
2024/02/14 12:07:53;;;;;;;1.23;0.60;;;15.70;99.90;;;;;;6062906;23;20035;-77
2024/02/14 12:10:43;;;;;;;0.75;0.57;;;16.90;99.90;;;;;;6041883;23;20078;-79
2024/02/14 12:13:32;;;;;;;1.35;0.60;;;16.40;99.90;;;;;;6060500;23;20026;-77
2024/02/14 12:16:26;;;;;;;0.75;0.63;;;16.60;99.90;;;;;;6062617;23;20440;-78
2024/02/14 12:19:18;;;;;;;1.67;0.70;;;17.30;99.90;;;;;;6042482;23;20093;-76
2024/02/14 12:22:17;;;;;;;2.25;0.90;;;16.90;99.90;;;;;;6062064;23;20501;-78
2024/02/14 12:25:10;;;;;;;2.58;0.73;;;15.40;99.90;;;;;;6064403;23;20059;-77
2024/02/14 12:28:01;;;;;;;1.50;0.90;;;14.30;99.90;;;;;;6039528;23;20043;-79
2024/02/14 12:30:57;;;;;;;1.60;0.80;;;13.60;99.90;;;;;;6057620;23;20744;-80
2024/02/14 12:33:45;;;;;;;1.30;0.65;;;13.40;99.90;;;;;;6058139;23;20022;-81
2024/02/14 12:36:35;;;;;;;0.70;0.65;;;13.00;99.90;;;;;;6050644;23;20027;-78
2024/02/14 12:39:26;;;;;;;1.30;0.80;;;13.10;99.90;;;;;;6082326;23;20029;-82
2024/02/14 12:42:15;;;;;;;2.28;0.70;;;13.10;99.90;;;;;;6080596;23;20260;-79
2024/02/14 12:45:03;;;;;;;1.50;0.90;;;12.80;99.90;;;;;;6068010;23;20094;-81
2024/02/14 12:47:51;;;;;;;1.30;0.77;;;12.40;99.90;;;;;;6057474;23;20090;-81
2024/02/14 12:50:47;;;;;;;1.17;0.80;;;12.20;99.90;;;;;;6041300;23;20031;-79
2024/02/14 12:53:35;;;;;;;0.65;0.65;;;12.10;99.90;;;;;;6053124;23;20351;-76
2024/02/14 12:56:23;;;;;;;1.55;0.70;;;12.10;99.90;;;;;;6034762;23;20026;-80
2024/02/14 12:59:18;;;;;;;1.83;0.82;;;12.20;99.90;;;;;;6037098;23;20034;-80
2024/02/14 13:02:06;;;;;;;1.23;0.70;;;12.40;99.90;;;;;;6057691;23;20045;-78
2024/02/14 13:04:54;;;;;;;1.52;0.65;;;12.50;99.90;;;;;;6056990;23;20027;-79
2024/02/14 13:07:42;;;;;;;0.77;0.63;;;12.60;99.90;;;;;;6034651;23;20023;-79
2024/02/14 13:10:31;;;;;;;1.67;0.70;;;12.80;99.90;;;;;;6054568;23;20101;-77
2024/02/14 13:13:18;;;;;;;0.80;0.65;;;13.00;99.90;;;;;;6055897;23;20026;-78
2024/02/14 13:16:08;;;;;;;0.77;0.77;;;12.80;99.90;;;;;;6055540;23;20418;-80
2024/02/14 13:18:56;;;;;;;0.93;0.70;;;12.70;99.90;;;;;;6057075;23;20050;-79
2024/02/14 13:21:45;;;;;;;1.15;0.80;;;12.70;99.90;;;;;;6057880;23;20045;-81
2024/02/14 13:24:33;;;;;;;2.55;0.82;;;12.80;99.90;;;;;;6067873;23;20458;-81
2024/02/14 13:27:23;;;;;;;4.50;0.85;;;13.00;99.90;;;;;;6086060;23;20023;-76
2024/02/14 13:30:11;;;;;;;0.50;0.50;;;13.10;99.90;;;;;;6070173;23;20025;-80
2024/02/14 13:32:58;;;;;;;2.45;0.70;;;13.20;99.90;;;;;;6036122;23;20030;-80
2024/02/14 13:35:46;;;;;;;0.95;0.60;;;13.10;99.90;;;;;;6061124;23;20033;-80
2024/02/14 13:38:34;;;;;;;1.75;0.75;;;12.90;99.90;;;;;;6055000;23;20362;-80
2024/02/14 13:41:22;;;;;;;0.65;0.65;;;12.90;99.90;;;;;;6056879;23;20042;-81
2024/02/14 13:44:10;;;;;;;1.35;0.80;;;12.80;99.90;;;;;;6054942;23;20034;-80
2024/02/14 13:46:58;;;;;;;1.60;0.93;;;12.70;99.90;;;;;;6055494;23;20069;-79
2024/02/14 13:49:46;;;;;;;1.17;0.80;;;12.60;99.90;;;;;;6040179;23;20034;-82
2024/02/14 13:52:34;;;;;;;0.88;0.55;;;12.50;99.90;;;;;;6055629;23;20027;-81
2024/02/14 13:55:24;;;;;;;0.75;0.75;;;12.40;99.90;;;;;;6058270;23;20030;-79
2024/02/14 13:58:16;;;;;;;0.85;0.80;;;12.40;99.90;;;;;;6055680;23;20158;-79
2024/02/14 14:01:07;;;;;;;1.38;0.80;;;12.30;99.90;;;;;;6035252;23;20047;-80
2024/02/14 14:03:58;;;;;;;1.08;0.98;;;12.30;99.90;;;;;;6059588;23;20035;-76
2024/02/14 14:06:47;;;;;;;1.25;0.85;;;12.20;99.90;;;;;;6069568;23;20041;-80
2024/02/14 14:09:37;;;;;;;2.55;0.80;;;12.20;99.90;;;;;;6029390;23;20041;-81
2024/02/14 14:12:24;;;;;;;1.65;1.05;;;12.20;99.90;;;;;;6048335;23;20040;-77
2024/02/14 14:15:12;;;;;;;2.20;0.93;;;12.20;99.90;;;;;;6029465;23;20023;-78
2024/02/14 14:18:04;;;;;;;1.05;0.88;;;12.20;99.90;;;;;;6066160;23;20137;-79
2024/02/14 14:20:54;;;;;;;1.55;1.02;;;12.20;99.90;;;;;;6062086;23;20054;-79
2024/02/14 14:23:43;;;;;;;1.30;0.90;;;12.20;99.90;;;;;;6061980;23;20059;-78
2024/02/14 14:26:31;;;;;;;1.40;0.90;;;12.20;99.90;;;;;;6060298;23;20026;-80
2024/02/14 14:29:18;;;;;;;1.48;0.80;;;12.20;99.90;;;;;;6039853;23;20031;-77
2024/02/14 14:32:08;;;;;;;0.70;0.70;;;12.20;99.90;;;;;;6037623;23;20078;-80
2024/02/14 14:34:55;;;;;;;2.55;0.82;;;12.30;99.90;;;;;;6059438;23;20046;-80
2024/02/14 14:37:43;;;;;;;1.10;0.90;;;12.40;99.90;;;;;;6079380;23;20037;-79
2024/02/14 14:40:32;;;;;;;0.90;0.80;;;12.40;99.90;;;;;;6080095;23;20027;-79
2024/02/14 14:43:21;;;;;;;2.13;1.45;;;12.50;99.90;;;;;;6076192;23;20090;-86
2024/02/14 14:46:08;;;;;;;2.10;0.90;;;12.50;99.90;;;;;;6041598;23;20030;-83
2024/02/14 14:48:56;;;;;;;0.80;0.80;;;12.50;99.90;;;;;;6070908;23;20031;-80